Chinquapin, North Carolina
Current Conditions -  °F | °C
As of 11:35 AM on Saturday 20 Dec 2014 (Local Time) from KOAJ Reporting Station
Overcast Overcast  
Wind Chill: 36°   Ceiling: 7500
Heat Index: 41°   Visibility: 7mi
Dew Point: 36°   Wind: 7mph
Humidity: 81%   Direction: 30°NNE
Pressure: 30.28"   Gusts: NA
Location:  34.83°N, 77.82°W
Report Text: KOAJ 201635Z AUTO 03006KT 7SM OVC075 05/02 A3028 RMK AO1
Loading
Personal Weather Stations






























Interactive Weather Map New forecast layout! Learn more

10-Day Weather Forecast

Advertisements
Track Severe Weather on mobile